createdAt,value
2019-05-30T00:00:17.779Z,89.45
2019-05-30T00:02:46.265Z,89.49
2019-05-30T00:05:17.936Z,89.27
2019-05-30T00:07:46.645Z,88.97
2019-05-30T00:10:18.092Z,88.91
2019-05-30T00:12:47.912Z,88.77
2019-05-30T00:15:18.223Z,88.58
2019-05-30T00:17:47.104Z,88.53
2019-05-30T00:20:19.049Z,88.46
2019-05-30T00:22:49.309Z,88.47
2019-05-30T00:25:17.923Z,88.34
2019-05-30T00:27:49.745Z,88.04
2019-05-30T00:30:24.316Z,87.72
2019-05-30T00:32:48.896Z,87.56
2019-05-30T00:35:19.014Z,87.54
2019-05-30T00:37:49.123Z,87.22
2019-05-30T00:40:18.926Z,86.96
2019-05-30T00:42:53.460Z,86.86
2019-05-30T00:45:25.198Z,86.69
2019-05-30T00:47:58.077Z,86.54
2019-05-30T00:50:27.197Z,86.30
2019-05-30T00:52:58.741Z,85.98
2019-05-30T00:55:27.848Z,85.94
2019-05-30T00:57:58.505Z,85.76
2019-05-30T01:00:42.841Z,85.61
2019-05-30T01:03:01.360Z,85.27
2019-05-30T01:05:29.544Z,84.99
2019-05-30T01:07:58.765Z,84.77
2019-05-30T01:10:27.516Z,84.58
2019-05-30T01:12:56.843Z,84.42
2019-05-30T01:15:25.524Z,84.32
2019-05-30T01:17:55.403Z,84.15
2019-05-30T01:20:24.039Z,84.01
2019-05-30T01:22:56.961Z,83.87
2019-05-30T01:25:25.576Z,83.79
2019-05-30T01:27:54.208Z,83.55
2019-05-30T01:30:23.223Z,83.42
2019-05-30T01:32:53.118Z,83.12
2019-05-30T01:35:23.313Z,82.84
2019-05-30T01:37:52.270Z,82.64
2019-05-30T01:40:21.001Z,82.41
2019-05-30T01:42:51.078Z,82.23
2019-05-30T01:45:20.848Z,82.08
2019-05-30T01:47:49.721Z,81.84
2019-05-30T01:50:20.110Z,81.75
2019-05-30T01:52:48.794Z,81.57
2019-05-30T01:55:17.743Z,81.42
2019-05-30T01:57:47.857Z,81.28
2019-05-30T02:00:21.347Z,81.16
2019-05-30T02:02:47.437Z,80.85
2019-05-30T02:05:18.204Z,80.60
2019-05-30T02:07:48.328Z,80.13
2019-05-30T02:10:17.101Z,80.04
2019-05-30T02:12:49.592Z,79.65
2019-05-30T02:15:19.864Z,79.35
2019-05-30T02:17:48.765Z,79.10
2019-05-30T02:20:19.317Z,78.90
2019-05-30T02:22:54.146Z,78.47
2019-05-30T02:25:24.212Z,78.73
2019-05-30T02:27:53.578Z,78.64
2019-05-30T02:30:25.289Z,78.49
2019-05-30T02:32:55.028Z,78.44
2019-05-30T02:35:25.129Z,78.40
2019-05-30T02:37:55.230Z,78.26
2019-05-30T02:40:26.836Z,78.19
2019-05-30T02:42:55.754Z,78.09
2019-05-30T02:45:24.466Z,77.91
2019-05-30T02:47:53.111Z,77.88
2019-05-30T02:50:21.872Z,77.59
2019-05-30T02:52:51.930Z,77.17
2019-05-30T02:55:21.942Z,77.09
2019-05-30T02:57:52.500Z,76.92
2019-05-30T03:00:32.471Z,76.77
2019-05-30T03:03:01.982Z,76.63
2019-05-30T03:05:32.761Z,76.46
2019-05-30T03:08:04.947Z,76.28
2019-05-30T03:10:36.497Z,76.10
2019-05-30T03:13:06.798Z,76.09
2019-05-30T03:15:36.862Z,75.93
2019-05-30T03:18:08.045Z,75.87
2019-05-30T03:20:38.358Z,75.77
2019-05-30T03:23:10.446Z,75.62
2019-05-30T03:25:39.626Z,75.33
2019-05-30T03:28:11.206Z,75.21
2019-05-30T03:30:39.929Z,75.10
2019-05-30T03:33:24.463Z,75.12
2019-05-30T03:35:43.019Z,74.94
2019-05-30T03:38:12.293Z,74.81
2019-05-30T03:40:40.855Z,74.46
2019-05-30T03:43:11.736Z,74.47
2019-05-30T03:45:42.195Z,74.47
2019-05-30T03:48:14.254Z,74.30
2019-05-30T03:50:48.954Z,74.32
2019-05-30T03:53:17.887Z,74.22
2019-05-30T03:55:50.295Z,74.12
2019-05-30T03:58:33.789Z,74.02
2019-05-30T04:01:05.916Z,73.55
2019-05-30T04:03:49.212Z,73.98
2019-05-30T04:06:22.092Z,73.80
2019-05-30T04:08:53.829Z,73.62
2019-05-30T04:11:26.017Z,73.61
2019-05-30T04:13:57.188Z,73.42
2019-05-30T04:16:28.950Z,73.47
2019-05-30T04:18:57.598Z,74.24
2019-05-30T04:21:29.067Z,74.70
2019-05-30T04:23:57.756Z,75.79
2019-05-30T04:26:27.705Z,76.30
2019-05-30T04:28:59.426Z,77.18
2019-05-30T04:31:31.182Z,77.43
2019-05-30T04:34:03.426Z,77.69
2019-05-30T04:36:32.096Z,77.75
2019-05-30T04:39:01.025Z,77.94
2019-05-30T04:41:31.186Z,78.05
2019-05-30T04:44:05.967Z,78.06
2019-05-30T04:46:34.615Z,77.86
2019-05-30T04:49:03.281Z,77.65
2019-05-30T04:51:31.930Z,77.60
2019-05-30T04:54:00.584Z,77.34
2019-05-30T04:56:29.255Z,76.87
2019-05-30T04:58:57.939Z,76.56
2019-05-30T05:01:26.809Z,76.29
2019-05-30T05:03:55.824Z,75.85
2019-05-30T05:06:24.481Z,75.32
2019-05-30T05:08:53.405Z,75.12
2019-05-30T05:11:25.228Z,74.27
2019-05-30T05:13:53.566Z,74.47
2019-05-30T05:16:35.039Z,73.97
2019-05-30T05:18:54.226Z,73.56
2019-05-30T05:21:23.177Z,73.27
2019-05-30T05:23:51.829Z,73.13
2019-05-30T05:26:21.562Z,72.42
2019-05-30T05:28:50.306Z,72.01
2019-05-30T05:31:20.396Z,72.17
2019-05-30T05:33:56.860Z,71.47
2019-05-30T05:36:21.579Z,71.47
2019-05-30T05:38:51.799Z,71.55
2019-05-30T05:41:20.448Z,71.09
2019-05-30T05:43:49.080Z,70.79
2019-05-30T05:46:20.314Z,70.17
2019-05-30T05:48:49.266Z,69.98
2019-05-30T05:51:18.570Z,69.15
2019-05-30T05:53:47.368Z,69.55
2019-05-30T05:56:16.930Z,69.39
2019-05-30T05:58:45.629Z,68.90
2019-05-30T06:01:17.131Z,68.94
2019-05-30T06:03:46.024Z,67.56
2019-05-30T06:06:17.144Z,67.67
2019-05-30T06:08:45.875Z,67.67
2019-05-30T06:11:14.923Z,67.74
2019-05-30T06:13:43.574Z,67.67
2019-05-30T06:16:18.492Z,68.07
2019-05-30T06:18:47.168Z,68.21
2019-05-30T06:21:17.234Z,68.17
2019-05-30T06:23:49.680Z,68.27
2019-05-30T06:26:19.817Z,68.26
2019-05-30T06:28:48.535Z,68.19
2019-05-30T06:31:18.765Z,68.05
2019-05-30T06:33:47.651Z,67.86
2019-05-30T06:36:18.784Z,67.24
2019-05-30T06:38:47.843Z,67.48
2019-05-30T06:41:17.773Z,66.05
2019-05-30T06:43:47.683Z,65.77
2019-05-30T06:46:16.347Z,65.80
2019-05-30T06:48:44.975Z,66.02
2019-05-30T06:51:14.616Z,66.50
2019-05-30T06:53:43.532Z,66.36
2019-05-30T06:56:13.723Z,65.57
2019-05-30T06:58:48.857Z,66.77
2019-05-30T07:01:13.067Z,68.18
2019-05-30T07:03:41.894Z,68.76
2019-05-30T07:06:14.053Z,69.88
2019-05-30T07:08:43.078Z,70.92
2019-05-30T07:11:12.378Z,72.79
2019-05-30T07:13:41.073Z,74.38
2019-05-30T07:16:09.773Z,75.36
2019-05-30T07:18:38.433Z,76.11
2019-05-30T07:21:07.166Z,76.65
2019-05-30T07:23:39.209Z,77.52
2019-05-30T07:26:06.697Z,77.59
2019-05-30T07:28:35.364Z,77.94
2019-05-30T07:31:06.790Z,76.61
2019-05-30T07:33:36.459Z,77.13
2019-05-30T07:36:05.510Z,76.67
2019-05-30T07:38:35.328Z,76.06
2019-05-30T07:41:04.011Z,75.53
2019-05-30T07:43:35.256Z,73.81
2019-05-30T07:46:04.169Z,73.67
2019-05-30T07:48:36.082Z,72.62
2019-05-30T07:51:07.636Z,70.95
2019-05-30T07:53:36.331Z,69.71
2019-05-30T07:56:08.316Z,68.89
2019-05-30T07:58:37.378Z,68.76
2019-05-30T08:01:07.615Z,67.18
2019-05-30T08:03:36.270Z,65.64
2019-05-30T08:06:06.221Z,64.36
2019-05-30T08:08:38.112Z,62.43
2019-05-30T08:11:10.082Z,61.09
2019-05-30T08:13:40.459Z,62.78
2019-05-30T08:16:10.350Z,62.64
2019-05-30T08:18:42.099Z,62.25
2019-05-30T08:21:12.088Z,59.78
2019-05-30T08:23:41.004Z,59.10
2019-05-30T08:26:12.935Z,58.79
2019-05-30T08:28:44.700Z,61.05
2019-05-30T08:31:14.291Z,61.96
2019-05-30T08:33:46.620Z,63.76
2019-05-30T08:36:13.597Z,64.56
2019-05-30T08:38:43.425Z,65.23
2019-05-30T08:41:14.940Z,66.31
2019-05-30T08:43:45.319Z,66.42
2019-05-30T08:46:13.968Z,65.85
2019-05-30T08:48:43.837Z,66.77
2019-05-30T08:51:14.341Z,67.32
2019-05-30T08:53:43.012Z,68.25
2019-05-30T08:56:11.663Z,67.85
2019-05-30T08:58:41.698Z,68.78
2019-05-30T09:01:10.400Z,69.17
2019-05-30T09:03:40.130Z,69.46
2019-05-30T09:06:08.827Z,69.94
2019-05-30T09:08:39.949Z,69.12
2019-05-30T09:11:11.461Z,68.93
2019-05-30T09:13:44.509Z,69.89
2019-05-30T09:16:13.271Z,69.54
2019-05-30T09:18:43.104Z,68.27
2019-05-30T09:21:12.412Z,66.22
2019-05-30T09:23:42.248Z,65.94
2019-05-30T09:26:14.266Z,65.43
2019-05-30T09:28:44.279Z,64.82
2019-05-30T09:31:14.357Z,68.24
2019-05-30T09:33:44.721Z,69.23
2019-05-30T09:36:14.044Z,69.60
2019-05-30T09:38:45.497Z,69.51
2019-05-30T09:41:14.424Z,72.37
2019-05-30T09:43:44.620Z,73.12
2019-05-30T09:46:13.737Z,72.66
2019-05-30T09:48:43.212Z,73.34
2019-05-30T09:51:12.292Z,74.82
2019-05-30T09:53:42.752Z,74.77
2019-05-30T09:56:12.447Z,75.41
2019-05-30T09:58:42.266Z,75.23
2019-05-30T10:01:12.964Z,75.86
2019-05-30T10:03:41.983Z,74.45
2019-05-30T10:06:28.895Z,73.41
2019-05-30T10:08:49.611Z,74.88
2019-05-30T10:11:21.497Z,73.61
2019-05-30T10:13:52.921Z,74.08
2019-05-30T10:16:23.113Z,72.07
2019-05-30T10:18:52.819Z,72.41
2019-05-30T10:21:23.036Z,72.15
2019-05-30T10:23:53.717Z,71.96
2019-05-30T10:26:23.787Z,72.86
2019-05-30T10:28:54.150Z,72.40
2019-05-30T10:31:23.067Z,72.42
2019-05-30T10:33:53.297Z,71.40
2019-05-30T10:36:22.301Z,71.85
2019-05-30T10:38:53.803Z,69.27
2019-05-30T10:41:22.571Z,69.53
2019-05-30T10:43:51.278Z,69.03
2019-05-30T10:46:20.009Z,70.02
2019-05-30T10:48:49.129Z,70.59
2019-05-30T10:51:19.582Z,71.09
2019-05-30T10:53:49.034Z,70.05
2019-05-30T10:56:19.367Z,69.46
2019-05-30T10:58:48.319Z,71.29
2019-05-30T11:01:17.052Z,69.42
2019-05-30T11:03:48.689Z,70.73
2019-05-30T11:06:27.105Z,70.26
2019-05-30T11:08:57.718Z,70.23
2019-05-30T11:11:26.524Z,71.46
2019-05-30T11:13:57.302Z,72.40
2019-05-30T11:16:26.102Z,72.10
2019-05-30T11:18:56.184Z,72.10
2019-05-30T11:21:24.904Z,72.53
2019-05-30T11:23:54.433Z,72.28
2019-05-30T11:26:24.466Z,73.53
2019-05-30T11:28:54.690Z,73.10
2019-05-30T11:31:23.638Z,74.28
2019-05-30T11:33:54.976Z,73.51
2019-05-30T11:36:24.939Z,72.22
2019-05-30T11:38:53.735Z,71.37
2019-05-30T11:41:22.407Z,70.49
2019-05-30T11:43:51.518Z,70.41
2019-05-30T11:46:21.432Z,69.56
2019-05-30T11:48:53.682Z,69.07
2019-05-30T11:51:22.678Z,70.08
2019-05-30T11:53:55.824Z,70.30
2019-05-30T11:56:25.594Z,70.15
2019-05-30T11:58:55.987Z,70.37
2019-05-30T12:01:26.260Z,71.18
2019-05-30T12:03:54.937Z,70.66
2019-05-30T12:06:26.566Z,71.01
2019-05-30T12:08:55.258Z,71.29
2019-05-30T12:11:23.945Z,71.27
2019-05-30T12:13:55.136Z,70.42
2019-05-30T12:16:25.078Z,69.06
2019-05-30T12:18:53.982Z,68.95
2019-05-30T12:21:23.851Z,70.60
2019-05-30T12:23:54.467Z,71.70
2019-05-30T12:26:24.526Z,71.08
2019-05-30T12:28:54.116Z,71.54
2019-05-30T12:31:24.559Z,71.66
2019-05-30T12:33:54.227Z,69.03
2019-05-30T12:36:23.131Z,68.74
2019-05-30T12:38:54.233Z,70.08
2019-05-30T12:41:24.563Z,71.00
2019-05-30T12:43:53.300Z,70.32
2019-05-30T12:46:23.447Z,70.21
2019-05-30T12:48:53.347Z,70.86
2019-05-30T12:51:21.983Z,66.77
2019-05-30T12:53:54.347Z,67.36
2019-05-30T12:56:24.350Z,67.11
2019-05-30T12:58:54.750Z,66.72
2019-05-30T13:01:27.173Z,65.97
2019-05-30T13:03:54.793Z,65.46
2019-05-30T13:06:26.572Z,66.67
2019-05-30T13:08:55.281Z,69.67
2019-05-30T13:11:24.235Z,72.04
2019-05-30T13:13:55.073Z,72.63
2019-05-30T13:16:24.311Z,71.00
2019-05-30T13:18:54.136Z,71.07
2019-05-30T13:21:23.934Z,67.79
2019-05-30T13:23:53.847Z,68.48
2019-05-30T13:26:23.792Z,67.73
2019-05-30T13:28:54.096Z,65.06
2019-05-30T13:31:23.007Z,64.89
2019-05-30T13:33:51.927Z,64.95
2019-05-30T13:36:22.168Z,61.83
2019-05-30T13:38:52.131Z,61.78
2019-05-30T13:41:22.097Z,64.44
2019-05-30T13:43:52.141Z,65.99
2019-05-30T13:46:22.865Z,67.29
2019-05-30T13:48:51.519Z,68.37
2019-05-30T13:51:23.175Z,69.67
2019-05-30T13:53:53.153Z,71.44
2019-05-30T13:56:23.281Z,72.50
2019-05-30T13:58:51.979Z,73.30
2019-05-30T14:01:20.717Z,71.20
2019-05-30T14:03:50.730Z,69.66
2019-05-30T14:06:19.490Z,67.62
2019-05-30T14:08:51.029Z,69.20
2019-05-30T14:11:19.675Z,65.56
2019-05-30T14:13:51.277Z,61.37
2019-05-30T14:16:19.980Z,63.01
2019-05-30T14:18:48.637Z,62.48
2019-05-30T14:21:17.336Z,59.05
2019-05-30T14:23:49.064Z,59.60
2019-05-30T14:26:17.716Z,60.29
2019-05-30T14:28:46.380Z,59.22
2019-05-30T14:31:15.174Z,57.47
2019-05-30T14:33:43.811Z,56.30
2019-05-30T14:36:14.653Z,56.76
2019-05-30T14:38:57.030Z,55.72
2019-05-30T14:41:14.310Z,56.44
2019-05-30T14:43:42.990Z,57.21
2019-05-30T14:46:12.459Z,59.84
2019-05-30T14:48:41.301Z,62.13
2019-05-30T14:51:11.085Z,63.30
2019-05-30T14:53:39.789Z,63.81
2019-05-30T14:56:09.146Z,63.43
2019-05-30T14:58:39.545Z,62.61
2019-05-30T15:01:09.558Z,64.04
2019-05-30T15:03:38.307Z,65.19
2019-05-30T15:06:11.538Z,66.52
2019-05-30T15:08:39.062Z,67.41
2019-05-30T15:11:09.500Z,68.28
2019-05-30T15:13:38.197Z,69.72
2019-05-30T15:16:08.801Z,69.90
2019-05-30T15:18:37.498Z,69.58
2019-05-30T15:21:08.247Z,70.39
2019-05-30T15:23:42.846Z,70.36
2019-05-30T15:26:12.595Z,69.51
2019-05-30T15:28:41.526Z,67.97
2019-05-30T15:31:10.485Z,68.29
2019-05-30T15:33:40.462Z,67.27
2019-05-30T15:36:10.718Z,65.63
2019-05-30T15:38:40.809Z,65.39
2019-05-30T15:41:11.349Z,64.82
2019-05-30T15:43:41.279Z,64.58
2019-05-30T15:46:09.962Z,60.16
2019-05-30T15:48:38.680Z,57.10
2019-05-30T15:51:08.387Z,54.26
2019-05-30T15:53:37.051Z,56.65
2019-05-30T15:56:05.742Z,58.75
2019-05-30T15:58:34.401Z,60.26
2019-05-30T16:01:03.073Z,60.23
2019-05-30T16:03:33.061Z,61.53
2019-05-30T16:06:01.738Z,62.65
2019-05-30T16:08:30.405Z,63.38
2019-05-30T16:10:59.376Z,62.20
2019-05-30T16:13:28.013Z,63.11
2019-05-30T16:15:58.259Z,61.97
2019-05-30T16:18:28.021Z,64.05
2019-05-30T16:20:56.716Z,65.20
2019-05-30T16:23:26.848Z,65.34
2019-05-30T16:25:56.867Z,64.28
2019-05-30T16:28:26.777Z,63.56
2019-05-30T16:30:56.671Z,64.80
2019-05-30T16:33:26.816Z,65.69
2019-05-30T16:35:57.094Z,66.04
2019-05-30T16:38:29.014Z,66.43
2019-05-30T16:40:57.692Z,66.09
2019-05-30T16:43:26.643Z,65.29
2019-05-30T16:45:55.286Z,62.19
2019-05-30T16:48:26.704Z,59.99
2019-05-30T16:50:55.667Z,57.69
2019-05-30T16:53:25.894Z,56.08
2019-05-30T16:55:54.953Z,55.14
2019-05-30T16:58:23.848Z,54.00
2019-05-30T17:00:53.712Z,50.95
2019-05-30T17:03:22.366Z,50.90
2019-05-30T17:05:52.283Z,51.02
2019-05-30T17:08:22.187Z,50.62
2019-05-30T17:10:50.895Z,49.01
2019-05-30T17:13:19.674Z,50.28
2019-05-30T17:15:48.286Z,52.36
2019-05-30T17:18:17.998Z,53.98
2019-05-30T17:20:48.551Z,56.18
2019-05-30T17:23:17.215Z,55.40
2019-05-30T17:25:45.880Z,53.78
2019-05-30T17:28:15.972Z,54.16
2019-05-30T17:30:45.987Z,52.40
2019-05-30T17:33:17.695Z,50.64
2019-05-30T17:35:45.693Z,49.33
2019-05-30T17:38:15.414Z,47.91
2019-05-30T17:40:45.641Z,49.52
2019-05-30T17:43:14.712Z,52.30
2019-05-30T17:45:45.193Z,53.26
2019-05-30T17:48:16.735Z,54.39
2019-05-30T17:50:44.298Z,52.92
2019-05-30T17:53:14.393Z,51.89
2019-05-30T17:55:44.702Z,53.00
2019-05-30T17:58:13.368Z,54.31
2019-05-30T18:00:42.038Z,56.23
2019-05-30T18:03:10.713Z,59.54
2019-05-30T18:05:39.383Z,60.25
2019-05-30T18:08:08.124Z,61.40
2019-05-30T18:10:36.847Z,62.20
2019-05-30T18:13:06.847Z,62.96
2019-05-30T18:15:35.529Z,63.74
2019-05-30T18:18:04.213Z,63.78
2019-05-30T18:20:47.807Z,63.70
2019-05-30T18:23:05.352Z,63.96
2019-05-30T18:25:40.317Z,64.97
2019-05-30T18:28:15.290Z,65.87
2019-05-30T18:30:47.350Z,67.17
2019-05-30T18:33:17.400Z,68.32
2019-05-30T18:35:49.301Z,69.93
2019-05-30T18:38:17.942Z,71.29
2019-05-30T18:40:46.619Z,72.52
2019-05-30T18:43:22.670Z,73.36
2019-05-30T18:45:54.384Z,74.10
2019-05-30T18:48:23.357Z,74.90
2019-05-30T18:50:52.109Z,76.23
2019-05-30T18:53:24.252Z,77.04
2019-05-30T18:55:55.504Z,77.71
2019-05-30T18:58:31.208Z,78.41
2019-05-30T19:01:00.997Z,79.43
2019-05-30T19:03:30.706Z,79.68
2019-05-30T19:06:02.907Z,80.95
2019-05-30T19:08:32.067Z,81.12
2019-05-30T19:11:03.410Z,81.32
2019-05-30T19:13:35.404Z,81.98
2019-05-30T19:16:10.115Z,81.95
2019-05-30T19:18:44.743Z,82.27
2019-05-30T19:21:16.142Z,82.75
2019-05-30T19:23:46.450Z,83.13
2019-05-30T19:26:16.186Z,83.91
2019-05-30T19:28:47.887Z,84.64
2019-05-30T19:31:16.547Z,85.07
2019-05-30T19:33:46.382Z,85.21
2019-05-30T19:36:17.794Z,85.37
2019-05-30T19:38:48.273Z,85.59
2019-05-30T19:41:16.936Z,85.63
2019-05-30T19:43:48.411Z,85.68
2019-05-30T19:46:17.347Z,85.88
2019-05-30T19:48:46.050Z,86.10
2019-05-30T19:51:20.959Z,86.02
2019-05-30T19:53:48.692Z,86.09
2019-05-30T19:56:17.416Z,86.00
2019-05-30T19:58:47.244Z,86.28
2019-05-30T20:01:17.227Z,85.94
2019-05-30T20:03:47.130Z,86.10
2019-05-30T20:06:15.875Z,86.25
2019-05-30T20:08:54.503Z,86.39
2019-05-30T20:11:16.574Z,86.24
2019-05-30T20:13:46.410Z,86.19
2019-05-30T20:16:18.052Z,86.25
2019-05-30T20:18:48.083Z,86.21
2019-05-30T20:21:16.764Z,85.97
2019-05-30T20:23:54.554Z,85.93
2019-05-30T20:26:16.872Z,85.82
2019-05-30T20:28:46.910Z,85.83
2019-05-30T20:31:16.699Z,85.85
2019-05-30T20:33:45.405Z,85.68
2019-05-30T20:36:15.336Z,85.64
2019-05-30T20:38:43.968Z,85.66
2019-05-30T20:41:14.142Z,85.71
2019-05-30T20:43:43.045Z,85.71
2019-05-30T20:46:22.782Z,85.85
2019-05-30T20:48:44.702Z,85.87
2019-05-30T20:51:20.880Z,86.12
2019-05-30T20:53:43.358Z,86.25
2019-05-30T20:56:12.565Z,86.69
2019-05-30T20:58:41.810Z,86.44
2019-05-30T21:01:13.207Z,86.62
2019-05-30T21:03:41.893Z,86.67
2019-05-30T21:06:12.897Z,86.89
2019-05-30T21:08:41.721Z,87.06
2019-05-30T21:11:11.605Z,87.28
2019-05-30T21:13:42.316Z,87.50
2019-05-30T21:16:13.807Z,87.73
2019-05-30T21:18:46.009Z,88.28
2019-05-30T21:21:14.786Z,88.71
2019-05-30T21:23:46.653Z,89.00
2019-05-30T21:26:16.627Z,89.36
2019-05-30T21:28:45.456Z,89.62
2019-05-30T21:31:15.429Z,89.93
2019-05-30T21:33:45.727Z,89.97
2019-05-30T21:36:15.817Z,90.00
2019-05-30T21:38:46.113Z,90.03
2019-05-30T21:41:15.011Z,90.26
2019-05-30T21:43:44.866Z,90.22
2019-05-30T21:46:13.563Z,90.29
2019-05-30T21:48:44.828Z,90.33
2019-05-30T21:51:13.852Z,90.42
2019-05-30T21:53:43.492Z,90.51
2019-05-30T21:56:13.001Z,90.62
2019-05-30T21:58:42.185Z,90.53
2019-05-30T22:01:32.882Z,90.57
2019-05-30T22:04:02.089Z,90.65
2019-05-30T22:06:32.153Z,90.69
2019-05-30T22:09:03.783Z,90.84
2019-05-30T22:11:32.602Z,90.88
2019-05-30T22:14:01.510Z,90.92
2019-05-30T22:16:30.180Z,90.79
2019-05-30T22:18:59.089Z,90.70
2019-05-30T22:21:28.022Z,90.75
2019-05-30T22:23:59.801Z,90.68
2019-05-30T22:26:29.619Z,90.72
2019-05-30T22:28:58.416Z,90.70
2019-05-30T22:31:28.592Z,90.62
2019-05-30T22:33:58.604Z,90.63
2019-05-30T22:36:28.599Z,90.63
2019-05-30T22:38:57.277Z,90.68
2019-05-30T22:41:25.963Z,90.71
2019-05-30T22:44:03.972Z,90.76
2019-05-30T22:46:32.635Z,90.75
2019-05-30T22:49:02.398Z,90.74
2019-05-30T22:51:31.085Z,90.62
2019-05-30T22:53:59.752Z,90.59
2019-05-30T22:56:28.679Z,90.62
2019-05-30T22:58:59.164Z,90.65
2019-05-30T23:01:28.147Z,90.71
2019-05-30T23:03:57.579Z,90.59
2019-05-30T23:06:26.974Z,90.48
2019-05-30T23:08:57.206Z,90.24
2019-05-30T23:11:28.877Z,90.37
2019-05-30T23:13:58.830Z,90.39
2019-05-30T23:16:27.464Z,90.23
2019-05-30T23:18:57.475Z,90.08
2019-05-30T23:21:26.415Z,90.06
2019-05-30T23:23:55.310Z,90.14
2019-05-30T23:26:25.224Z,90.19
2019-05-30T23:28:53.890Z,90.02
2019-05-30T23:31:25.273Z,89.95
2019-05-30T23:33:56.463Z,89.87
2019-05-30T23:36:25.418Z,89.83
2019-05-30T23:38:54.927Z,89.87
2019-05-30T23:41:23.578Z,89.99
2019-05-30T23:43:57.941Z,89.97
2019-05-30T23:46:22.600Z,89.99
2019-05-30T23:48:54.118Z,90.06
2019-05-30T23:51:22.825Z,90.06
2019-05-30T23:53:52.055Z,89.92
2019-05-30T23:56:21.977Z,89.95
2019-05-30T23:58:54.698Z,89.87
